»·PEaware :: SWA3886 KSNA-KLAS

SWA3886 :: KSNA-KLAS

FLIGHT INFORMATION

Flight Status: Arrived
Operator:
Southwest Airlines
More flights by this operator :: More flights under this callsign
Pilot: Colin A. (19898)
Aircraft: BOEING 737-700
(B737)
More flights by this aircraft type
Origin: KSNA John Wayne-Orange Co
United States
Destination: KLAS McCarran Intl
United States
More flights between these airports :: More routes between these airports
Route: +FINZZ2 MISEN KEPEC6
File this flight plan on PilotEdge
Remarks: PBN / A1B1C1D1S1S2 DOF / 180728 REG / N714SB OPR / SWA PER / C RMK / TCAS SIMBRIEF
Altitude:
(Current/Filed)
37,000ft
Speed:
(Current/Filed)
458kts
Departed: 28-Jul-18 02:00 PM
Arrived: 28-Jul-18 02:46 PM
Distance/Time
Traveled:
197nm/0:46
Distance/Time
To Go:
Arrived

Flight Plot

Page will automatically refresh every two minutes.

Flight plan parsing failed; only flown route is shown


Map Options




Map Legend


Flown Route
Filed Route
Departure Airport
Arrival Airport
Navaid (VOR, NDB)
Fix

Horizontal Profiles

Position Reports

Time Latitude Longitude Heading Altitude Ground
Speed
28-Jul-18 13:28 33.681517 -117.860669 116 64ft 0kts
28-Jul-18 13:29 33.681517 -117.860669 116 64ft 0kts
28-Jul-18 13:30 33.681517 -117.860669 116 64ft 0kts
28-Jul-18 13:31 33.681517 -117.860669 116 64ft 0kts
28-Jul-18 13:32 33.681517 -117.860669 116 64ft 0kts
28-Jul-18 13:33 33.681517 -117.860669 116 64ft 0kts
28-Jul-18 13:34 33.681517 -117.860669 116 64ft 0kts
28-Jul-18 13:35 33.681517 -117.860669 116 64ft 0kts
28-Jul-18 13:36 33.681517 -117.860669 116 64ft 0kts
28-Jul-18 13:37 33.681517 -117.860669 116 64ft 0kts
28-Jul-18 13:38 33.681517 -117.860669 116 64ft 0kts
28-Jul-18 13:39 33.681517 -117.860669 116 64ft 0kts
28-Jul-18 13:40 33.681517 -117.860669 116 64ft 0kts
28-Jul-18 13:41 33.681517 -117.860669 116 64ft 0kts
28-Jul-18 13:42 33.681517 -117.860669 116 64ft 0kts
28-Jul-18 13:43 33.681517 -117.860669 116 64ft 0kts
28-Jul-18 13:44 33.681517 -117.860669 116 64ft 0kts
28-Jul-18 13:45 33.681517 -117.860669 116 64ft 0kts
28-Jul-18 13:46 33.681517 -117.860669 116 64ft 0kts
28-Jul-18 13:47 33.681517 -117.860669 116 64ft 0kts
28-Jul-18 13:48 33.681517 -117.860669 116 64ft 0kts
28-Jul-18 13:49 33.681517 -117.860669 116 64ft 0kts
28-Jul-18 13:50 33.681517 -117.860669 116 64ft 0kts
28-Jul-18 13:51 33.681517 -117.860669 116 64ft 0kts
28-Jul-18 13:52 33.681517 -117.860669 116 64ft 0kts
28-Jul-18 13:53 33.681632 -117.860937 119 64ft 2kts
28-Jul-18 13:54 33.682055 -117.861411 204 64ft 2kts
28-Jul-18 13:55 33.682199 -117.861322 208 64ft 0kts
28-Jul-18 13:56 33.682199 -117.861322 208 64ft 0kts
28-Jul-18 13:57 33.681170 -117.861968 208 64ft 19kts
28-Jul-18 13:58 33.680615 -117.863119 299 64ft 0kts
28-Jul-18 13:59 33.680697 -117.863298 298 64ft 10kts
28-Jul-18 14:00 33.680549 -117.865755 207 64ft 31kts
28-Jul-18 14:01 33.641253 -117.887458 193 2789ft 191kts
28-Jul-18 14:02 33.579295 -117.899540 198 4968ft 252kts
28-Jul-18 14:03 33.524288 -117.952601 223 7806ft 271kts
28-Jul-18 14:04 33.502326 -118.034084 296 8002ft 282kts
28-Jul-18 14:05 33.558771 -118.101839 310 11316ft 300kts
28-Jul-18 14:06 33.646745 -118.112321 27 14409ft 372kts
28-Jul-18 14:07 33.738541 -118.043832 25 17608ft 402kts
28-Jul-18 14:08 33.841743 -117.982584 22 20804ft 425kts
28-Jul-18 14:09 33.947416 -117.908830 35 23024ft 467kts
28-Jul-18 14:10 34.053060 -117.810617 34 25166ft 488kts
28-Jul-18 14:11 34.149145 -117.690855 50 27186ft 508kts
28-Jul-18 14:12 34.239174 -117.555321 49 28905ft 522kts
28-Jul-18 14:13 34.330666 -117.418597 49 30432ft 519kts
28-Jul-18 14:14 34.420237 -117.284814 49 32731ft 502kts
28-Jul-18 14:15 34.505985 -117.155653 49 35015ft 484kts
28-Jul-18 14:16 34.591393 -117.029247 48 36536ft 484kts
28-Jul-18 14:17 34.663703 -116.924080 48 37063ft 501kts
28-Jul-18 14:18 34.755050 -116.790606 48 37017ft 509kts
28-Jul-18 14:19 34.861160 -116.638943 41 33948ft 516kts
28-Jul-18 14:20 34.974413 -116.528167 35 30252ft 527kts
28-Jul-18 14:21 35.069756 -116.435634 36 27176ft 524kts
28-Jul-18 14:22 35.173843 -116.316769 46 24974ft 483kts
28-Jul-18 14:23 35.261363 -116.204885 45 23931ft 438kts
28-Jul-18 14:24 35.345967 -116.097761 45 21971ft 447kts
28-Jul-18 14:25 35.434481 -115.986296 45 19227ft 456kts
28-Jul-18 14:26 35.519413 -115.879041 46 16553ft 416kts
28-Jul-18 14:27 35.596585 -115.780823 46 14080ft 382kts
28-Jul-18 14:28 35.664552 -115.694001 47 13141ft 322kts
28-Jul-18 14:29 35.725357 -115.616358 47 13042ft 332kts
28-Jul-18 14:30 35.806243 -115.570773 0 13034ft 330kts
28-Jul-18 14:31 35.897728 -115.567625 359 13030ft 328kts
28-Jul-18 14:32 35.983373 -115.538709 49 13007ft 331kts
28-Jul-18 14:33 36.009860 -115.439954 72 13018ft 296kts
28-Jul-18 14:34 36.029162 -115.345978 98 12985ft 258kts
28-Jul-18 14:35 36.022376 -115.254205 98 10633ft 297kts
28-Jul-18 14:36 36.015375 -115.155419 98 9170ft 263kts
28-Jul-18 14:37 36.009635 -115.069337 97 8270ft 245kts
28-Jul-18 14:38 36.004739 -114.985785 97 8006ft 244kts
28-Jul-18 14:39 36.012394 -114.904899 41 7942ft 255kts
28-Jul-18 14:40 36.082376 -114.893011 345 7983ft 255kts
28-Jul-18 14:41 36.146792 -114.930315 331 7569ft 257kts
28-Jul-18 14:42 36.204304 -114.977431 308 6441ft 238kts
28-Jul-18 14:43 36.229612 -115.040978 241 5291ft 205kts
28-Jul-18 14:44 36.186364 -115.085891 224 5123ft 207kts
28-Jul-18 14:45 36.146298 -115.125368 207 3680ft 164kts
28-Jul-18 14:46 36.111348 -115.146454 199 2596ft 120kts
28-Jul-18 14:47 36.086988 -115.160236 202 2189ft 30kts
28-Jul-18 14:48 36.082856 -115.161141 170 2189ft 0kts
28-Jul-18 14:49 36.082854 -115.161140 170 2189ft 0kts
28-Jul-18 14:50 36.081624 -115.155870 94 2189ft 29kts
28-Jul-18 14:51 36.078814 -115.151999 90 2189ft 23kts
28-Jul-18 14:52 36.078525 -115.147749 91 2189ft 27kts
28-Jul-18 14:53 36.079762 -115.145815 335 2189ft 0kts
28-Jul-18 14:54 36.079762 -115.145815 335 2189ft 0kts
28-Jul-18 14:55 36.079762 -115.145815 335 2189ft 0kts
28-Jul-18 14:56 36.079762 -115.145815 335 2189ft 0kts

Navigation Log

Ident Type
Flight plan parsing failed, navigation log unavailable